createdAt,value
2018-04-18T00:00:36.549Z,12.91
2018-04-18T00:03:04.108Z,12.86
2018-04-18T00:05:31.725Z,12.86
2018-04-18T00:07:59.300Z,12.89
2018-04-18T00:10:26.896Z,12.89
2018-04-18T00:12:54.479Z,12.89
2018-04-18T00:15:22.063Z,12.85
2018-04-18T00:17:49.626Z,12.88
2018-04-18T00:20:17.216Z,12.85
2018-04-18T00:22:44.841Z,12.83
2018-04-18T00:25:12.400Z,12.88
2018-04-18T00:27:40.060Z,12.89
2018-04-18T00:30:07.671Z,12.98
2018-04-18T00:32:35.299Z,12.96
2018-04-18T00:35:02.876Z,12.89
2018-04-18T00:37:30.463Z,12.84
2018-04-18T00:39:58.068Z,12.95
2018-04-18T00:42:25.658Z,12.85
2018-04-18T00:44:53.252Z,12.83
2018-04-18T00:47:20.848Z,12.80
2018-04-18T00:49:48.428Z,12.82
2018-04-18T00:52:15.997Z,12.80
2018-04-18T00:54:43.565Z,12.72
2018-04-18T00:57:11.151Z,12.72
2018-04-18T00:59:38.712Z,12.69
2018-04-18T01:02:06.346Z,12.59
2018-04-18T01:04:33.907Z,12.64
2018-04-18T01:07:01.538Z,12.61
2018-04-18T01:09:29.101Z,12.57
2018-04-18T01:11:56.659Z,12.47
2018-04-18T01:14:24.270Z,12.44
2018-04-18T01:16:51.848Z,12.38
2018-04-18T01:19:19.410Z,12.36
2018-04-18T01:21:47.007Z,12.34
2018-04-18T01:24:14.588Z,12.31
2018-04-18T01:26:42.164Z,12.32
2018-04-18T01:29:09.731Z,12.26
2018-04-18T01:31:37.309Z,12.24
2018-04-18T01:34:04.868Z,12.21
2018-04-18T01:36:32.461Z,12.21
2018-04-18T01:39:00.026Z,12.16
2018-04-18T01:41:27.607Z,12.15
2018-04-18T01:43:55.179Z,12.13
2018-04-18T01:46:22.744Z,12.12
2018-04-18T01:48:50.328Z,12.08
2018-04-18T01:51:17.892Z,12.11
2018-04-18T01:53:45.456Z,12.09
2018-04-18T01:56:13.568Z,12.11
2018-04-18T01:58:41.139Z,12.11
2018-04-18T02:01:08.712Z,12.13
2018-04-18T02:03:36.300Z,12.13
2018-04-18T02:06:03.868Z,12.13
2018-04-18T02:08:31.431Z,12.12
2018-04-18T02:10:59.012Z,12.10
2018-04-18T02:13:26.637Z,12.05
2018-04-18T02:15:54.201Z,12.05
2018-04-18T02:18:21.773Z,12.07
2018-04-18T02:20:49.332Z,12.02
2018-04-18T02:23:16.896Z,11.97
2018-04-18T02:25:44.473Z,11.93
2018-04-18T02:28:12.430Z,11.92
2018-04-18T02:30:40.012Z,11.90
2018-04-18T02:33:07.579Z,11.84
2018-04-18T02:35:35.159Z,11.84
2018-04-18T02:38:02.724Z,11.80
2018-04-18T02:40:30.275Z,11.84
2018-04-18T02:42:57.830Z,11.78
2018-04-18T02:45:25.393Z,11.76
2018-04-18T02:47:52.948Z,11.71
2018-04-18T02:50:20.487Z,11.71
2018-04-18T02:52:48.104Z,11.66
2018-04-18T02:55:15.725Z,11.63
2018-04-18T02:57:43.283Z,11.64
2018-04-18T03:00:10.851Z,11.64
2018-04-18T03:02:38.480Z,11.67
2018-04-18T03:05:06.064Z,11.60
2018-04-18T03:07:33.644Z,11.56
2018-04-18T03:10:01.212Z,11.61
2018-04-18T03:12:28.787Z,11.59
2018-04-18T03:14:56.342Z,11.58
2018-04-18T03:17:23.948Z,11.58
2018-04-18T03:19:51.510Z,11.64
2018-04-18T03:22:19.073Z,11.64
2018-04-18T03:24:46.669Z,11.60
2018-04-18T03:27:14.249Z,11.59
2018-04-18T03:29:41.839Z,11.57
2018-04-18T03:32:09.394Z,11.52
2018-04-18T03:34:36.987Z,11.50
2018-04-18T03:37:04.561Z,11.46
2018-04-18T03:39:32.134Z,11.41
2018-04-18T03:41:59.688Z,11.40
2018-04-18T03:44:27.324Z,11.42
2018-04-18T03:46:54.980Z,11.40
2018-04-18T03:49:22.571Z,11.35
2018-04-18T03:51:50.146Z,11.38
2018-04-18T03:54:17.729Z,11.34
2018-04-18T03:56:45.349Z,11.32
2018-04-18T03:59:12.932Z,11.30
2018-04-18T04:01:40.518Z,11.25
2018-04-18T04:04:08.075Z,11.24
2018-04-18T04:06:35.634Z,11.19
2018-04-18T04:09:03.194Z,11.09
2018-04-18T04:11:30.742Z,11.05
2018-04-18T04:13:58.302Z,10.97
2018-04-18T04:16:37.655Z,11.01
2018-04-18T04:19:17.013Z,10.98
2018-04-18T04:21:56.324Z,10.99
2018-04-18T04:24:35.712Z,10.98
2018-04-18T04:27:03.313Z,11.02
2018-04-18T04:29:31.843Z,10.98
2018-04-18T04:31:59.430Z,10.95
2018-04-18T04:34:27.231Z,10.96
2018-04-18T04:36:54.781Z,10.91
2018-04-18T04:39:22.342Z,10.93
2018-04-18T04:41:49.942Z,10.94
2018-04-18T04:44:17.493Z,10.94
2018-04-18T04:46:45.087Z,10.94
2018-04-18T04:49:12.700Z,10.91
2018-04-18T04:51:40.300Z,10.91
2018-04-18T04:54:07.868Z,10.90
2018-04-18T04:56:35.511Z,10.89
2018-04-18T04:59:03.153Z,11.00
2018-04-18T05:01:30.728Z,11.00
2018-04-18T05:03:58.340Z,11.04
2018-04-18T05:06:25.919Z,11.08
2018-04-18T05:08:53.467Z,11.12
2018-04-18T05:11:21.113Z,11.13
2018-04-18T05:13:48.745Z,11.22
2018-04-18T05:16:16.329Z,11.22
2018-04-18T05:18:43.997Z,11.28
2018-04-18T05:21:11.602Z,11.34
2018-04-18T05:23:39.170Z,11.40
2018-04-18T05:26:06.754Z,11.47
2018-04-18T05:28:34.347Z,11.53
2018-04-18T05:31:01.909Z,11.62
2018-04-18T05:33:29.483Z,11.72
2018-04-18T05:35:57.044Z,11.73
2018-04-18T05:38:24.629Z,11.87
2018-04-18T05:40:52.213Z,12.01
2018-04-18T05:43:19.792Z,12.11
2018-04-18T05:45:47.380Z,12.21
2018-04-18T05:48:14.968Z,12.36
2018-04-18T05:50:42.522Z,12.46
2018-04-18T05:53:10.070Z,12.91
2018-04-18T05:55:37.622Z,13.94
2018-04-18T05:58:05.190Z,15.28
2018-04-18T06:00:32.772Z,16.38
2018-04-18T06:03:00.351Z,17.09
2018-04-18T06:05:27.914Z,17.69
2018-04-18T06:07:55.473Z,18.31
2018-04-18T06:10:23.037Z,17.90
2018-04-18T06:12:50.616Z,17.76
2018-04-18T06:15:18.213Z,18.52
2018-04-18T06:17:45.785Z,19.24
2018-04-18T06:20:13.368Z,19.08
2018-04-18T06:22:40.921Z,19.12
2018-04-18T06:25:08.480Z,18.79
2018-04-18T06:27:36.071Z,19.40
2018-04-18T06:30:03.653Z,19.73
2018-04-18T06:32:31.236Z,20.06
2018-04-18T06:34:58.872Z,20.06
2018-04-18T06:37:26.427Z,20.25
2018-04-18T06:39:54.012Z,20.25
2018-04-18T06:42:21.573Z,20.81
2018-04-18T06:44:49.158Z,20.89
2018-04-18T06:47:16.737Z,20.54
2018-04-18T06:49:44.305Z,19.91
2018-04-18T06:52:11.861Z,19.97
2018-04-18T06:54:39.456Z,19.80
2018-04-18T06:57:07.017Z,19.98
2018-04-18T06:59:34.574Z,20.01
2018-04-18T07:02:02.123Z,20.19
2018-04-18T07:04:29.685Z,20.03
2018-04-18T07:06:57.289Z,20.33
2018-04-18T07:09:24.870Z,19.93
2018-04-18T07:11:52.419Z,20.04
2018-04-18T07:14:19.980Z,19.66
2018-04-18T07:16:47.609Z,19.67
2018-04-18T07:19:15.218Z,20.02
2018-04-18T07:21:42.774Z,20.02
2018-04-18T07:24:10.367Z,20.26
2018-04-18T07:26:37.951Z,20.67
2018-04-18T07:29:05.501Z,20.49
2018-04-18T07:31:33.081Z,20.89
2018-04-18T07:34:00.649Z,20.68
2018-04-18T07:36:28.232Z,21.65
2018-04-18T07:38:55.827Z,22.35
2018-04-18T07:41:23.377Z,22.54
2018-04-18T07:43:50.952Z,22.61
2018-04-18T07:46:18.552Z,23.16
2018-04-18T07:48:46.120Z,23.71
2018-04-18T07:51:13.681Z,24.03
2018-04-18T07:53:41.303Z,23.71
2018-04-18T07:56:08.881Z,23.11
2018-04-18T07:58:36.467Z,23.54
2018-04-18T08:01:04.116Z,23.77
2018-04-18T08:03:31.697Z,24.23
2018-04-18T08:05:59.261Z,23.94
2018-04-18T08:08:26.869Z,23.88
2018-04-18T08:10:54.419Z,24.18
2018-04-18T08:13:21.981Z,23.82
2018-04-18T08:15:49.577Z,24.12
2018-04-18T08:18:17.131Z,25.54
2018-04-18T08:20:44.761Z,25.37
2018-04-18T08:23:12.346Z,24.84
2018-04-18T08:25:39.919Z,23.84
2018-04-18T08:28:07.509Z,23.01
2018-04-18T08:30:35.093Z,23.90
2018-04-18T08:33:02.687Z,23.95
2018-04-18T08:35:30.220Z,23.58
2018-04-18T08:37:57.797Z,23.68
2018-04-18T08:40:25.375Z,24.01
2018-04-18T08:42:52.972Z,23.78
2018-04-18T08:45:20.541Z,23.89
2018-04-18T08:47:48.118Z,23.60
2018-04-18T08:50:15.724Z,23.81
2018-04-18T08:52:43.462Z,23.92
2018-04-18T08:55:11.043Z,23.80
2018-04-18T08:57:38.617Z,23.40
2018-04-18T09:00:06.193Z,23.17
2018-04-18T09:02:33.768Z,23.48
2018-04-18T09:05:01.338Z,22.86
2018-04-18T09:07:28.912Z,23.08
2018-04-18T09:09:56.478Z,23.24
2018-04-18T09:12:24.086Z,23.18
2018-04-18T09:14:51.685Z,23.03
2018-04-18T09:17:19.341Z,22.95
2018-04-18T09:19:46.919Z,23.39
2018-04-18T09:22:14.536Z,23.42
2018-04-18T09:24:42.103Z,23.60
2018-04-18T09:27:09.719Z,23.22
2018-04-18T09:29:37.307Z,23.10
2018-04-18T09:32:04.868Z,23.32
2018-04-18T09:34:32.444Z,23.37
2018-04-18T09:36:59.982Z,22.97
2018-04-18T09:39:27.554Z,22.94
2018-04-18T09:41:55.127Z,23.02
2018-04-18T09:44:22.693Z,23.03
2018-04-18T09:46:50.269Z,22.87
2018-04-18T09:49:17.836Z,22.51
2018-04-18T09:51:45.400Z,22.95
2018-04-18T09:54:12.938Z,23.09
2018-04-18T09:56:40.493Z,22.79
2018-04-18T09:59:08.131Z,22.87
2018-04-18T10:01:41.342Z,22.91
2018-04-18T10:04:09.859Z,23.16
2018-04-18T10:06:37.427Z,23.14
2018-04-18T10:09:06.518Z,23.07
2018-04-18T10:11:34.094Z,23.10
2018-04-18T10:14:01.696Z,23.27
2018-04-18T10:16:29.254Z,23.32
2018-04-18T10:18:56.817Z,23.12
2018-04-18T10:21:24.409Z,23.19
2018-04-18T10:23:51.998Z,23.48
2018-04-18T10:26:19.572Z,23.10
2018-04-18T10:28:47.136Z,23.26
2018-04-18T10:31:14.713Z,23.48
2018-04-18T10:33:42.307Z,23.51
2018-04-18T10:36:09.862Z,23.43
2018-04-18T10:38:37.490Z,23.32
2018-04-18T10:41:05.054Z,23.46
2018-04-18T10:43:32.619Z,23.62
2018-04-18T10:46:00.244Z,23.31
2018-04-18T10:48:27.801Z,23.11
2018-04-18T10:50:55.389Z,23.00
2018-04-18T10:53:23.257Z,23.09
2018-04-18T10:55:50.851Z,23.35
2018-04-18T10:58:18.418Z,23.45
2018-04-18T11:00:46.007Z,23.44
2018-04-18T11:03:13.570Z,23.06
2018-04-18T11:05:41.144Z,23.31
2018-04-18T11:08:09.518Z,23.69
2018-04-18T11:10:37.083Z,23.51
2018-04-18T11:13:04.661Z,23.62
2018-04-18T11:15:32.924Z,23.56
2018-04-18T11:18:00.516Z,23.66
2018-04-18T11:20:28.089Z,23.42
2018-04-18T11:22:55.633Z,23.24
2018-04-18T11:25:23.189Z,23.32
2018-04-18T11:27:50.931Z,23.30
2018-04-18T11:30:18.549Z,23.46
2018-04-18T11:32:46.321Z,23.49
2018-04-18T11:35:13.882Z,23.57
2018-04-18T11:37:42.156Z,23.59
2018-04-18T11:40:10.713Z,23.75
2018-04-18T11:42:38.292Z,23.47
2018-04-18T11:45:05.864Z,23.28
2018-04-18T11:47:33.472Z,23.53
2018-04-18T11:50:01.025Z,23.78
2018-04-18T11:52:28.599Z,23.50
2018-04-18T11:54:56.175Z,23.58
2018-04-18T11:57:23.721Z,23.81
2018-04-18T11:59:51.404Z,23.80
2018-04-18T12:02:18.973Z,23.74
2018-04-18T12:04:46.561Z,23.89
2018-04-18T12:07:14.125Z,23.74
2018-04-18T12:09:45.681Z,23.86
2018-04-18T12:12:13.264Z,24.23
2018-04-18T12:14:40.809Z,24.04
2018-04-18T12:17:08.364Z,23.95
2018-04-18T12:19:36.776Z,24.02
2018-04-18T12:22:04.327Z,23.95
2018-04-18T12:24:31.871Z,24.04
2018-04-18T12:26:59.455Z,24.00
2018-04-18T12:29:27.021Z,23.90
2018-04-18T12:31:54.568Z,24.10
2018-04-18T12:34:22.162Z,24.01
2018-04-18T12:36:49.787Z,24.15
2018-04-18T12:39:17.371Z,24.21
2018-04-18T12:41:44.927Z,24.00
2018-04-18T12:44:12.508Z,23.94
2018-04-18T12:46:40.092Z,23.99
2018-04-18T12:49:07.660Z,23.82
2018-04-18T12:51:35.208Z,23.86
2018-04-18T12:54:02.758Z,23.90
2018-04-18T12:56:30.325Z,23.93
2018-04-18T12:58:57.888Z,23.94
2018-04-18T13:01:25.449Z,23.89
2018-04-18T13:03:53.008Z,23.75
2018-04-18T13:06:20.564Z,23.87
2018-04-18T13:08:48.165Z,23.87
2018-04-18T13:11:15.716Z,23.93
2018-04-18T13:13:43.275Z,24.04
2018-04-18T13:16:10.834Z,24.04
2018-04-18T13:18:38.394Z,24.00
2018-04-18T13:21:05.945Z,23.97
2018-04-18T13:23:33.514Z,24.12
2018-04-18T13:26:01.055Z,24.19
2018-04-18T13:28:28.633Z,24.11
2018-04-18T13:30:56.188Z,24.06
2018-04-18T13:33:23.774Z,24.16
2018-04-18T13:35:52.118Z,24.17
2018-04-18T13:38:19.687Z,24.26
2018-04-18T13:40:47.253Z,24.15
2018-04-18T13:43:14.829Z,24.07
2018-04-18T13:45:42.442Z,24.02
2018-04-18T13:48:09.984Z,24.18
2018-04-18T13:50:37.549Z,24.32
2018-04-18T13:53:05.124Z,24.29
2018-04-18T13:55:32.684Z,24.29
2018-04-18T13:58:00.293Z,24.23
2018-04-18T14:00:27.862Z,24.04
2018-04-18T14:02:55.419Z,23.97
2018-04-18T14:05:22.974Z,24.17
2018-04-18T14:07:50.588Z,24.24
2018-04-18T14:10:18.123Z,24.27
2018-04-18T14:12:45.682Z,24.29
2018-04-18T14:15:14.880Z,24.25
2018-04-18T14:17:42.469Z,24.21
2018-04-18T14:20:10.017Z,24.04
2018-04-18T14:22:37.580Z,24.09
2018-04-18T14:25:05.148Z,24.13
2018-04-18T14:27:32.815Z,24.29
2018-04-18T14:30:00.520Z,24.29
2018-04-18T14:32:28.071Z,24.10
2018-04-18T14:34:55.661Z,24.20
2018-04-18T14:37:23.239Z,24.19
2018-04-18T14:39:50.824Z,24.15
2018-04-18T14:42:18.498Z,24.19
2018-04-18T14:44:46.046Z,24.14
2018-04-18T14:47:13.594Z,24.32
2018-04-18T14:49:41.142Z,24.26
2018-04-18T14:52:08.712Z,24.28
2018-04-18T14:54:36.287Z,24.29
2018-04-18T14:57:03.857Z,24.22
2018-04-18T14:59:31.415Z,24.25
2018-04-18T15:01:58.990Z,24.22
2018-04-18T15:04:26.554Z,24.18
2018-04-18T15:06:54.108Z,24.21
2018-04-18T15:09:21.664Z,24.23
2018-04-18T15:11:49.233Z,24.29
2018-04-18T15:14:16.815Z,24.18
2018-04-18T15:16:44.376Z,24.23
2018-04-18T15:19:11.929Z,24.27
2018-04-18T15:21:39.502Z,24.35
2018-04-18T15:24:07.089Z,24.41
2018-04-18T15:26:34.654Z,24.33
2018-04-18T15:29:02.205Z,24.13
2018-04-18T15:31:29.768Z,24.14
2018-04-18T15:33:57.328Z,24.16
2018-04-18T15:36:24.886Z,24.10
2018-04-18T15:38:52.479Z,24.25
2018-04-18T15:41:20.057Z,24.23
2018-04-18T15:43:47.636Z,24.17
2018-04-18T15:46:15.198Z,24.24
2018-04-18T15:48:42.761Z,24.08
2018-04-18T15:51:10.332Z,24.12
2018-04-18T15:53:37.925Z,24.14
2018-04-18T15:56:05.494Z,24.09
2018-04-18T15:58:33.116Z,24.15
2018-04-18T16:01:00.678Z,24.08
2018-04-18T16:03:28.238Z,24.16
2018-04-18T16:05:55.814Z,24.15
2018-04-18T16:08:23.362Z,24.11
2018-04-18T16:10:50.965Z,24.18
2018-04-18T16:13:18.523Z,24.21
2018-04-18T16:15:46.079Z,24.16
2018-04-18T16:18:13.700Z,24.22
2018-04-18T16:20:41.277Z,24.11
2018-04-18T16:23:08.850Z,24.13
2018-04-18T16:25:36.497Z,24.08
2018-04-18T16:28:04.063Z,24.12
2018-04-18T16:30:41.601Z,24.06
2018-04-18T16:33:09.173Z,24.02
2018-04-18T16:35:36.779Z,23.91
2018-04-18T16:38:04.337Z,23.92
2018-04-18T16:40:31.910Z,23.91
2018-04-18T16:42:59.503Z,23.90
2018-04-18T16:45:27.129Z,23.90
2018-04-18T16:47:54.730Z,23.87
2018-04-18T16:50:22.354Z,23.87
2018-04-18T16:52:49.913Z,23.85
2018-04-18T16:55:17.474Z,23.78
2018-04-18T16:57:45.034Z,23.70
2018-04-18T17:00:12.668Z,23.68
2018-04-18T17:02:40.256Z,23.70
2018-04-18T17:05:07.964Z,23.61
2018-04-18T17:07:35.530Z,23.58
2018-04-18T17:10:03.328Z,23.54
2018-04-18T17:12:30.934Z,23.53
2018-04-18T17:14:58.520Z,23.52
2018-04-18T17:17:26.086Z,23.49
2018-04-18T17:19:53.845Z,23.45
2018-04-18T17:22:21.406Z,23.40
2018-04-18T17:24:48.993Z,23.31
2018-04-18T17:27:16.566Z,23.23
2018-04-18T17:29:44.134Z,23.19
2018-04-18T17:32:11.693Z,23.14
2018-04-18T17:34:39.268Z,23.12
2018-04-18T17:37:06.859Z,23.05
2018-04-18T17:39:34.528Z,23.03
2018-04-18T17:42:02.115Z,23.00
2018-04-18T17:44:29.712Z,22.98
2018-04-18T17:46:57.879Z,22.95
2018-04-18T17:49:25.424Z,22.84
2018-04-18T17:51:53.012Z,22.86
2018-04-18T17:54:20.592Z,22.75
2018-04-18T17:56:48.171Z,22.68
2018-04-18T17:59:15.735Z,22.62
2018-04-18T18:01:44.881Z,22.63
2018-04-18T18:04:13.870Z,22.58
2018-04-18T18:06:41.468Z,22.52
2018-04-18T18:09:09.379Z,22.45
2018-04-18T18:11:36.948Z,22.35
2018-04-18T18:14:04.520Z,22.30
2018-04-18T18:16:32.552Z,22.25
2018-04-18T18:19:00.161Z,22.19
2018-04-18T18:21:27.952Z,22.08
2018-04-18T18:23:55.687Z,21.99
2018-04-18T18:26:23.250Z,21.93
2018-04-18T18:28:51.084Z,21.81
2018-04-18T18:31:18.966Z,21.71
2018-04-18T18:33:46.683Z,21.53
2018-04-18T18:36:14.468Z,21.32
2018-04-18T18:38:42.071Z,21.36
2018-04-18T18:41:09.685Z,21.33
2018-04-18T18:43:37.592Z,21.20
2018-04-18T18:46:05.166Z,21.05
2018-04-18T18:48:32.741Z,20.91
2018-04-18T18:51:00.313Z,20.87
2018-04-18T18:53:27.868Z,20.82
2018-04-18T18:55:55.496Z,20.79
2018-04-18T18:58:23.135Z,20.69
2018-04-18T19:00:50.737Z,20.57
2018-04-18T19:03:18.322Z,20.42
2018-04-18T19:05:45.953Z,20.35
2018-04-18T19:08:13.730Z,20.29
2018-04-18T19:10:41.282Z,20.19
2018-04-18T19:13:08.856Z,20.13
2018-04-18T19:15:36.441Z,19.96
2018-04-18T19:18:04.033Z,19.76
2018-04-18T19:20:31.629Z,19.69
2018-04-18T19:22:59.237Z,19.73
2018-04-18T19:25:27.017Z,19.61
2018-04-18T19:27:54.596Z,19.21
2018-04-18T19:30:22.163Z,19.31
2018-04-18T19:32:49.741Z,19.17
2018-04-18T19:35:17.347Z,19.13
2018-04-18T19:37:44.915Z,19.02
2018-04-18T19:40:12.537Z,18.65
2018-04-18T19:42:40.133Z,18.61
2018-04-18T19:50:58.339Z,18.71
2018-04-18T19:53:25.984Z,18.65
2018-04-18T19:55:53.553Z,18.58
2018-04-18T19:58:21.144Z,18.57
2018-04-18T20:00:48.739Z,18.50
2018-04-18T20:03:16.341Z,18.32
2018-04-18T20:05:43.958Z,18.26
2018-04-18T20:08:11.577Z,18.22
2018-04-18T20:10:39.159Z,17.91
2018-04-18T20:13:06.725Z,17.77
2018-04-18T20:15:34.291Z,17.76
2018-04-18T20:18:01.866Z,17.77
2018-04-18T20:20:29.494Z,17.71
2018-04-18T20:22:57.068Z,17.73
2018-04-18T20:25:24.678Z,17.69
2018-04-18T20:27:52.305Z,17.66
2018-04-18T20:30:19.929Z,17.65
2018-04-18T20:32:47.653Z,17.55
2018-04-18T20:35:15.213Z,17.52
2018-04-18T20:37:42.774Z,17.42
2018-04-18T20:40:10.337Z,17.41
2018-04-18T20:42:37.896Z,17.32
2018-04-18T20:45:05.728Z,17.27
2018-04-18T20:47:33.309Z,17.33
2018-04-18T20:50:00.908Z,17.22
2018-04-18T20:52:28.508Z,17.16
2018-04-18T20:54:56.103Z,17.09
2018-04-18T20:57:23.667Z,17.02
2018-04-18T20:59:51.221Z,17.03
2018-04-18T21:02:18.798Z,16.81
2018-04-18T21:04:46.374Z,16.50
2018-04-18T21:07:13.942Z,16.71
2018-04-18T21:09:41.566Z,16.96
2018-04-18T21:12:09.149Z,16.85
2018-04-18T21:14:36.760Z,16.70
2018-04-18T21:17:04.331Z,16.71
2018-04-18T21:19:31.890Z,16.62
2018-04-18T21:21:59.467Z,16.60
2018-04-18T21:24:27.095Z,16.55
2018-04-18T21:26:54.666Z,16.41
2018-04-18T21:29:22.239Z,16.42
2018-04-18T21:31:49.808Z,16.31
2018-04-18T21:34:17.410Z,16.18
2018-04-18T21:36:44.965Z,16.13
2018-04-18T21:39:12.547Z,16.09
2018-04-18T21:41:40.128Z,15.98
2018-04-18T21:44:07.685Z,15.97
2018-04-18T21:46:35.260Z,16.06
2018-04-18T21:49:02.842Z,16.05
2018-04-18T21:51:30.439Z,16.02
2018-04-18T21:53:57.994Z,15.87
2018-04-18T21:56:25.579Z,15.89
2018-04-18T21:58:53.161Z,15.80
2018-04-18T22:10:09.118Z,15.34
2018-04-18T22:12:36.693Z,15.49
2018-04-18T22:15:04.282Z,15.47
2018-04-18T22:17:31.842Z,15.38
2018-04-18T22:19:59.407Z,15.41
2018-04-18T22:22:26.988Z,15.37
2018-04-18T22:24:54.552Z,15.23
2018-04-18T22:27:22.103Z,15.23
2018-04-18T22:29:49.688Z,15.22
2018-04-18T22:32:17.276Z,15.23
2018-04-18T22:34:44.869Z,15.15
2018-04-18T22:37:12.521Z,15.08
2018-04-18T22:39:40.118Z,15.01
2018-04-18T22:42:07.684Z,14.90
2018-04-18T22:44:35.257Z,14.89
2018-04-18T22:47:02.853Z,14.89
2018-04-18T22:49:30.429Z,14.79
2018-04-18T22:51:58.011Z,14.74
2018-04-18T22:54:25.585Z,14.79
2018-04-18T22:56:53.193Z,14.80
2018-04-18T22:59:20.801Z,14.81
2018-04-18T23:01:48.368Z,14.69
2018-04-18T23:04:15.972Z,14.75
2018-04-18T23:06:43.536Z,14.76
2018-04-18T23:09:11.114Z,14.84
2018-04-18T23:11:38.692Z,14.88
2018-04-18T23:14:06.244Z,14.94
2018-04-18T23:16:33.830Z,14.83
2018-04-18T23:19:01.427Z,14.77
2018-04-18T23:21:29.004Z,14.56
2018-04-18T23:23:56.591Z,14.49
2018-04-18T23:26:24.160Z,14.44
2018-04-18T23:28:51.726Z,14.53
2018-04-18T23:31:19.304Z,14.56
2018-04-18T23:33:46.858Z,14.40
2018-04-18T23:36:14.469Z,14.35
2018-04-18T23:38:42.026Z,14.37
2018-04-18T23:41:09.586Z,14.29
2018-04-18T23:43:37.206Z,14.16
2018-04-18T23:46:04.772Z,14.07
2018-04-18T23:48:32.354Z,14.07
2018-04-18T23:50:59.901Z,14.07
2018-04-18T23:53:27.468Z,14.09
2018-04-18T23:55:55.033Z,14.13
2018-04-18T23:58:22.586Z,14.11
